LFST/SXB METAR and TAF weather

Enter ICAO airport designator
Station Type Date Time Source
LFST METAR 2019/02/17 15:30 UTC NOAA

LFST 171530Z AUTO VRB02KT CAVOK 19/01 Q1022 NOSIG


Station Type Date Time Source
LFST Decoded METAR 2019/02/17 15:30 UTC NOAA

Strasbourg, France (LFST) 48-33N 007-38E 154M
Feb 17, 2019 - 10:30 AM EST / 2019.02.17 1530 UTC
Wind: Variable at 2 MPH (2 KT):0
Visibility: greater than 7 mile(s):0
Temperature: 66 F (19 C)
Dew Point: 33 F (1 C)
Relative Humidity: 29%
Pressure (altimeter): 30.18 in. Hg (1022 hPa)
ob: LFST 171530Z AUTO VRB02KT CAVOK 19/01 Q1022 NOSIG
cycle: 15

Station Type Date Time Source
LFST TAF 2019/02/17 12:21 UTC NOAA

TAF LFST 171100Z 1712/1812 VRB03KT CAVOK
BECMG 1721/1724 3000 BR PROB40
TEMPO 1800/1806 1200 BCFG


Example: see airport list